Albion, CA

7:43 AM PDT on October 24, 2014 (GMT -0700)
Comptche-Ukiah Rd | Change Station
CLOSE
Current Station
Personal Weather Station
Location: Mendocino, CA
Elevation: 840 ft
Nearby Weather Stations
Active Advisory: Wind Advisory

Elev 840 ft 39.27 °N, 123.70 °W | Updated 1 second ago

Overcast
Overcast
56.5 °F
Feels Like 56.5 °F
N
0.0
Wind Variable Wind from East
Gusts 2.0 mph

Today
High -- | Low -- °F
--% Chance of Precip.
Yesterday
High -- | Low -- °F
Precip. -- in
7:33 AM 6:23 PM
New Moon, 1% visible
Pressure 29.95 in
Visibility 1.8 miles
Clouds Mostly Cloudy 200 ft
Overcast 3200 ft
Dew Point 56 °F
Humidity 98%
Rainfall 0.00 in
Snow Depth Not available.
UV 0 out of 12
Pollen 1.40 out of 12
Air Quality Not available.
Flu Activity Sporadic
SPECI KUKI 241426Z AUTO 00000KT 1 3/4SM BR BKN002 OVC032 12/12 A2995 RMK AO2 T01220117

More Conditions Fewer Conditions

Pressure 29.95 in
Visibility 1.8 miles
Clouds Mostly Cloudy 200 ft
Overcast 3200 ft
Dew Point 56 °F
Humidity 98%
Rainfall 0.00 in
Snow Depth Not available.
UV 0 out of 12
Pollen 1.40 out of 12
Air Quality Not available.
Flu Activity Sporadic
SPECI KUKI 241426Z AUTO 00000KT 1 3/4SM BR BKN002 OVC032 12/12 A2995 RMK AO2 T01220117

More Conditions Fewer Conditions

10-Day Weather Forecast

Almanac

Astronomy

Oct. 24, 2014 Rise Set
Actual Time 7:33 AM PDT 6:23 PM PDT
Civil Twilight 7:06 AM PDT 6:50 PM PDT
Nautical Twilight 6:35 AM PDT 7:22 PM PDT
Astronomical Twilight 6:04 AM PDT 7:53 PM PDT
Moon 8:18 AM PDT 7:07 PM PDT
Length of Visible Light 11h 44m
Length of Day
10h 49m
Tomorrow will be 2m 22s shorter.
New Moon, 1% of the Moon is Illuminated
Today
New Moon
Oct 30
First Quarter
Nov 6
Full
Nov 14
Last Quarter
Nov 22
New

Today's Extremes

State Highs State Lows

Community

WunderPhotos

Upload Photos

1,764,581 photos uploaded!

WunderBlogs® & News

Nearby

Snow Depth

Station Depth Elevation
CSS Lab 1 in 6900 ft
Independence Lake 0 in 8450 ft
Independence Camp 0 in 7000 ft
Independence Creek 0 in 6500 ft
Squaw Valley 0 in 8200 ft

Earthquake Activity

City Distance Mag. Time & Date
No recent earthquake activity has been reported nearby.
Minimum magnitude displayed is 2.5.

Coastal Water Temperatures

Place Temperature
Arena Cove, CA 60.1 °F
North Spit, CA 57.9 °F
Point Reyes, CA 61.0 °F
San Francisco, CA 62.1 °F
Richmond, CA 64.0 °F

Nearby Weather Stations